(°F)
39°
38°
37°
36°
36°
37°
39°
(°F)
34°
33°
32°
31°
31°
32°
34°
N
N
N
N
N
N
NNE
(mph)
3-7
3-7
3-5
3-5
3-5
3-6
4-6
(in)
0
0
0
0
0
0
0
(%)
0
0
0
0
0
0
0

Sun elevation

/ -19.5°
sun-icon
UV 0
05:50
18:30
Waxing gibbous moon (172°)
19:02
04:06

METAR for 64.6°N 40.72°E (ULAA)

Time Conditions Temperature/
Dewpoint
Wind Visibility Weather Clouds Pressure Change Raw
MVFR 39.2°F / 35.6°F 30º 2kt >10km - Broken Clouds 2600ft 1035 No Significant change ULAA 192300Z 03001MPS 9999 BKN026 04/02 Q1035 R08/CLRD70 NOSIG RMK QFE775/1034
MVFR 39.2°F / 35.6°F 50º variable 010º to 100º 4kt >10km - Overcast 2400ft 1035 No Significant change ULAA 192230Z 05002MPS 010V100 9999 OVC024 04/02 Q1035 R08/CLRD70 NOSIG RMK QFE775/1034
VFR 41°F / 37.4°F 10º 2kt >10km - Overcast 3100ft 1035 No Significant change ULAA 192200Z 01001MPS 9999 OVC031 05/03 Q1035 R08/CLRD70 NOSIG RMK QFE775/1034
VFR 41°F / 37.4°F 10º variable 330º to 040º 4kt >10km - Overcast 3200ft 1035 No Significant change ULAA 192130Z 01002MPS 330V040 9999 OVC032 05/03 Q1035 R08/CLRD70 NOSIG RMK QFE775/1033
VFR 41°F / 37.4°F 20º 4kt >10km - Overcast 3100ft 1034 No Significant change ULAA 192100Z 02002MPS 9999 OVC031 05/03 Q1034 R08/CLRD70 NOSIG RMK QFE775/1033
MVFR 41°F / 37.4°F 20º 2kt >10km - Broken Clouds 2900ft 1034 No Significant change ULAA 192030Z 02001MPS 9999 BKN029 05/03 Q1034 R08/CLRD70 NOSIG RMK QFE775/1033
MVFR 41°F / 37.4°F 30º 2kt >10km - Broken Clouds 2900ft 1034 No Significant change ULAA 192000Z 03001MPS 9999 BKN029 05/03 Q1034 R08/CLRD70 NOSIG RMK QFE774/1033
MVFR 41°F / 37.4°F 30º variable 360º to 060º 4kt >10km - Broken Clouds 3000ft 1034 No Significant change ULAA 191930Z 03002MPS 360V060 9999 BKN030 05/03 Q1034 R08/CLRD70 NOSIG RMK QFE774/1033
VFR 41°F / 35.6°F variable 2kt >10km - Broken Clouds 3100ft 1034 No Significant change ULAA 191900Z VRB01MPS 9999 BKN031 05/02 Q1034 R08/CLRD70 NOSIG RMK QFE774/1032
MVFR 41°F / 35.6°F variable 2kt >10km - Broken Clouds 3000ft 1033 No Significant change ULAA 191830Z VRB01MPS 9999 BKN030 05/02 Q1033 R08/CLRD70 NOSIG RMK QFE774/1032
VFR 42.8°F / 35.6°F variable 2kt >10km - Broken Clouds 3300ft 1033 No Significant change ULAA 191800Z VRB01MPS 9999 BKN033 06/02 Q1033 R08/CLRD70 NOSIG RMK QFE774/1032
VFR 42.8°F / 35.6°F variable 2kt >10km - Broken Clouds 3200ft 1033 No Significant change ULAA 191730Z VRB01MPS 9999 BKN032 06/02 Q1033 R08/CLRD70 NOSIG RMK QFE774/1032
VFR 42.8°F / 35.6°F 60º variable 030º to 090º 4kt >10km - Broken Clouds 3400ft 1033 No Significant change ULAA 191700Z 06002MPS 030V090 9999 BKN034 06/02 Q1033 R08/CLRD70 NOSIG RMK QFE774/1032
VFR 42.8°F / 35.6°F 60º variable 020º to 100º 4kt >10km - Broken Clouds 3500ft 1033 No Significant change ULAA 191630Z 06002MPS 020V100 9999 BKN035 06/02 Q1033 R08/CLRD70 NOSIG RMK QFE773/1031
VFR 41°F / 37.4°F 50º 4kt >10km - Broken Clouds 3500ft 1032 No Significant change ULAA 191600Z 05002MPS 9999 BKN035 05/03 Q1032 R08/CLRD70 NOSIG RMK QFE773/1031
VFR 41°F / 37.4°F variable 2kt >10km - Scattered Clouds 3000ft 1032 No Significant change ULAA 191530Z VRB01MPS 9999 SCT030 05/03 Q1032 R26/CLRD70 NOSIG RMK QFE773/1030
VFR 44.6°F / 39.2°F variable 2kt >10km - Broken Clouds 3500ft 1032 No Significant change ULAA 191500Z VRB01MPS 9999 BKN035CB 07/04 Q1032 R26/CLRD70 NOSIG RMK QFE773/1030
MVFR 46.4°F / 39.2°F 360º variable 300º to 090º 4kt >10km - Broken Clouds 2700ft 1032 No Significant change ULAA 191430Z 36002MPS 300V090 9999 BKN027CB 08/04 Q1032 R26/CLRD70 NOSIG RMK QFE773/1030
VFR 46.4°F / 39.2°F 310º variable 280º to 350º 4kt >10km - Broken Clouds 3600ft 1032 No Significant change ULAA 191400Z 31002MPS 280V350 9999 BKN036 08/04 Q1032 R26/CLRD70 NOSIG RMK QFE773/1030
VFR 46.4°F / 39.2°F 300º variable 260º to 340º 6kt >10km - Broken Clouds 3500ft 1032 No Significant change ULAA 191330Z 30003MPS 260V340 9999 BKN035 08/04 Q1032 R26/CLRD70 NOSIG RMK QFE773/1030
VFR 46.4°F / 39.2°F 320º variable 290º to 360º 6kt >10km - Broken Clouds 3500ft 1032 No Significant change ULAA 191300Z 32003MPS 290V360 9999 BKN035 08/04 Q1032 R26/CLRD70 NOSIG RMK QFE773/1030
VFR 48.2°F / 35.6°F 40º variable 350º to 090º 4kt >10km - Broken Clouds 3300ft 1032 No Significant change ULAA 191230Z 04002MPS 350V090 9999 BKN033 09/02 Q1032 R26/CLRD70 NOSIG RMK QFE773/1031
VFR 48.2°F / 33.8°F 30º variable 340º to 080º 6kt >10km - Broken Clouds 3800ft 1033 No Significant change ULAA 191200Z 03003MPS 340V080 9999 BKN038CB 09/01 Q1033 R26/CLRD70 NOSIG RMK QFE773/1031
MVFR 48.2°F / 33.8°F 10º variable 320º to 080º 6kt >10km - Broken Clouds 3000ft 1033 No Significant change ULAA 191130Z 01003MPS 320V080 9999 BKN030CB 09/01 Q1033 R08/CLRD70 NOSIG RMK QFE773/1031

MVFR

39.2°F / 35.6°F

[More]
Wind 30º 2kt
Visibility >10km
Weather -
Clouds Broken Clouds 2600ft
Pressure 1035
Change No Significant change
Raw ULAA 192300Z 03001MPS 9999 BKN026 04/02 Q1035 R08/CLRD70 NOSIG RMK QFE775/1034

MVFR

39.2°F / 35.6°F

[More]
Wind 50º variable 010º to 100º 4kt
Visibility >10km
Weather -
Clouds Overcast 2400ft
Pressure 1035
Change No Significant change
Raw ULAA 192230Z 05002MPS 010V100 9999 OVC024 04/02 Q1035 R08/CLRD70 NOSIG RMK QFE775/1034

VFR

41°F / 37.4°F

[More]
Wind 10º 2kt
Visibility >10km
Weather -
Clouds Overcast 3100ft
Pressure 1035
Change No Significant change
Raw ULAA 192200Z 01001MPS 9999 OVC031 05/03 Q1035 R08/CLRD70 NOSIG RMK QFE775/1034

VFR

41°F / 37.4°F

[More]
Wind 10º variable 330º to 040º 4kt
Visibility >10km
Weather -
Clouds Overcast 3200ft
Pressure 1035
Change No Significant change
Raw ULAA 192130Z 01002MPS 330V040 9999 OVC032 05/03 Q1035 R08/CLRD70 NOSIG RMK QFE775/1033

VFR

41°F / 37.4°F

[More]
Wind 20º 4kt
Visibility >10km
Weather -
Clouds Overcast 3100ft
Pressure 1034
Change No Significant change
Raw ULAA 192100Z 02002MPS 9999 OVC031 05/03 Q1034 R08/CLRD70 NOSIG RMK QFE775/1033

MVFR

41°F / 37.4°F

[More]
Wind 20º 2kt
Visibility >10km
Weather -
Clouds Broken Clouds 2900ft
Pressure 1034
Change No Significant change
Raw ULAA 192030Z 02001MPS 9999 BKN029 05/03 Q1034 R08/CLRD70 NOSIG RMK QFE775/1033

MVFR

41°F / 37.4°F

[More]
Wind 30º 2kt
Visibility >10km
Weather -
Clouds Broken Clouds 2900ft
Pressure 1034
Change No Significant change
Raw ULAA 192000Z 03001MPS 9999 BKN029 05/03 Q1034 R08/CLRD70 NOSIG RMK QFE774/1033

MVFR

41°F / 37.4°F

[More]
Wind 30º variable 360º to 060º 4kt
Visibility >10km
Weather -
Clouds Broken Clouds 3000ft
Pressure 1034
Change No Significant change
Raw ULAA 191930Z 03002MPS 360V060 9999 BKN030 05/03 Q1034 R08/CLRD70 NOSIG RMK QFE774/1033

VFR

41°F / 35.6°F

[More]
Wind variable 2kt
Visibility >10km
Weather -
Clouds Broken Clouds 3100ft
Pressure 1034
Change No Significant change
Raw ULAA 191900Z VRB01MPS 9999 BKN031 05/02 Q1034 R08/CLRD70 NOSIG RMK QFE774/1032

MVFR

41°F / 35.6°F

[More]
Wind variable 2kt
Visibility >10km
Weather -
Clouds Broken Clouds 3000ft
Pressure 1033
Change No Significant change
Raw ULAA 191830Z VRB01MPS 9999 BKN030 05/02 Q1033 R08/CLRD70 NOSIG RMK QFE774/1032

VFR

42.8°F / 35.6°F

[More]
Wind variable 2kt
Visibility >10km
Weather -
Clouds Broken Clouds 3300ft
Pressure 1033
Change No Significant change
Raw ULAA 191800Z VRB01MPS 9999 BKN033 06/02 Q1033 R08/CLRD70 NOSIG RMK QFE774/1032

VFR

42.8°F / 35.6°F

[More]
Wind variable 2kt
Visibility >10km
Weather -
Clouds Broken Clouds 3200ft
Pressure 1033
Change No Significant change
Raw ULAA 191730Z VRB01MPS 9999 BKN032 06/02 Q1033 R08/CLRD70 NOSIG RMK QFE774/1032

VFR

42.8°F / 35.6°F

[More]
Wind 60º variable 030º to 090º 4kt
Visibility >10km
Weather -
Clouds Broken Clouds 3400ft
Pressure 1033
Change No Significant change
Raw ULAA 191700Z 06002MPS 030V090 9999 BKN034 06/02 Q1033 R08/CLRD70 NOSIG RMK QFE774/1032

VFR

42.8°F / 35.6°F

[More]
Wind 60º variable 020º to 100º 4kt
Visibility >10km
Weather -
Clouds Broken Clouds 3500ft
Pressure 1033
Change No Significant change
Raw ULAA 191630Z 06002MPS 020V100 9999 BKN035 06/02 Q1033 R08/CLRD70 NOSIG RMK QFE773/1031

VFR

41°F / 37.4°F

[More]
Wind 50º 4kt
Visibility >10km
Weather -
Clouds Broken Clouds 3500ft
Pressure 1032
Change No Significant change
Raw ULAA 191600Z 05002MPS 9999 BKN035 05/03 Q1032 R08/CLRD70 NOSIG RMK QFE773/1031

VFR

41°F / 37.4°F

[More]
Wind variable 2kt
Visibility >10km
Weather -
Clouds Scattered Clouds 3000ft
Pressure 1032
Change No Significant change
Raw ULAA 191530Z VRB01MPS 9999 SCT030 05/03 Q1032 R26/CLRD70 NOSIG RMK QFE773/1030

VFR

44.6°F / 39.2°F

[More]
Wind variable 2kt
Visibility >10km
Weather -
Clouds Broken Clouds 3500ft
Pressure 1032
Change No Significant change
Raw ULAA 191500Z VRB01MPS 9999 BKN035CB 07/04 Q1032 R26/CLRD70 NOSIG RMK QFE773/1030

MVFR

46.4°F / 39.2°F

[More]
Wind 360º variable 300º to 090º 4kt
Visibility >10km
Weather -
Clouds Broken Clouds 2700ft
Pressure 1032
Change No Significant change
Raw ULAA 191430Z 36002MPS 300V090 9999 BKN027CB 08/04 Q1032 R26/CLRD70 NOSIG RMK QFE773/1030

VFR

46.4°F / 39.2°F

[More]
Wind 310º variable 280º to 350º 4kt
Visibility >10km
Weather -
Clouds Broken Clouds 3600ft
Pressure 1032
Change No Significant change
Raw ULAA 191400Z 31002MPS 280V350 9999 BKN036 08/04 Q1032 R26/CLRD70 NOSIG RMK QFE773/1030

VFR

46.4°F / 39.2°F

[More]
Wind 300º variable 260º to 340º 6kt
Visibility >10km
Weather -
Clouds Broken Clouds 3500ft
Pressure 1032
Change No Significant change
Raw ULAA 191330Z 30003MPS 260V340 9999 BKN035 08/04 Q1032 R26/CLRD70 NOSIG RMK QFE773/1030

VFR

46.4°F / 39.2°F

[More]
Wind 320º variable 290º to 360º 6kt
Visibility >10km
Weather -
Clouds Broken Clouds 3500ft
Pressure 1032
Change No Significant change
Raw ULAA 191300Z 32003MPS 290V360 9999 BKN035 08/04 Q1032 R26/CLRD70 NOSIG RMK QFE773/1030

VFR

48.2°F / 35.6°F

[More]
Wind 40º variable 350º to 090º 4kt
Visibility >10km
Weather -
Clouds Broken Clouds 3300ft
Pressure 1032
Change No Significant change
Raw ULAA 191230Z 04002MPS 350V090 9999 BKN033 09/02 Q1032 R26/CLRD70 NOSIG RMK QFE773/1031

VFR

48.2°F / 33.8°F

[More]
Wind 30º variable 340º to 080º 6kt
Visibility >10km
Weather -
Clouds Broken Clouds 3800ft
Pressure 1033
Change No Significant change
Raw ULAA 191200Z 03003MPS 340V080 9999 BKN038CB 09/01 Q1033 R26/CLRD70 NOSIG RMK QFE773/1031

MVFR

48.2°F / 33.8°F

[More]
Wind 10º variable 320º to 080º 6kt
Visibility >10km
Weather -
Clouds Broken Clouds 3000ft
Pressure 1033
Change No Significant change
Raw ULAA 191130Z 01003MPS 320V080 9999 BKN030CB 09/01 Q1033 R08/CLRD70 NOSIG RMK QFE773/1031

TAF for 64.6°N 40.72°E (ULAA)

From till


From till Wind 10º 6kt. Visibility 6000m. Few Clouds 700ft. Broken Clouds 2000ft.
Temporarly from till Wind variable 2kt. Visibility 305.775m. Fog . Broken Clouds 200ft.
From till Wind 30º 6kt. Visibility 10km or more. Scattered Clouds 2000ft.
Becoming from till Wind 70º 6kt. Visibility 10km or more. Scattered Clouds 2000ft.

Raw: TAF ULAA 192300Z 2000/2024 01003MPS 6000 FEW007 BKN020 TEMPO 2000/2005 VRB01MPS 0300 FG BKN002 FM200500 03003MPS 9999 SCT020 BECMG 2009/2011 07003MPS

Current satellite and rain images for 64.6°N 40.72°E

The location marker is placed on 64.6°N 40.72°E. [More]

The real-time satellite image combines visible light during daytime with infrared radiation during nighttime. At night, the image is not dark as infrared radiation can detect temperature differences. Unfortunately, low clouds and fog are difficult to distinguish from ground temperatures and thus can be almost invisible during the night. Meteosat satellite images for Europe are updated in real-time every 5 minutes. GOES-16/GOES-17 (North & South America) and Himawari (Asia) images update every 10 minutes.

Copyright 2021 EUMETSAT / meteoblue. / Copyright 2021 meteoblue

Radar and precipitation nowcast for 64.6°N 40.72°E

Drizzle
Light
Moderate
Heavy
Very Heavy
Hail

The location marker is placed on 64.6°N 40.72°E. This animation shows the precipitation radar for the last hour, as well as a 1h forecast. Drizzle or light snow fall might be invisible for the radar. Precipitation intensity is colour coded, ranging from light blue to orange.